2008 OKC Memorial Marathon

Marathon

Awards and rank are based on gun time.

Boston Marathon qualification based on net time and age as of April 27, 2008.

Summary

Number of finishers:
1,970
Number of females:
737
Number of males:
1,233
Average time:
4:31:46

Info

April 27, 2008 in Oklahoma City, OK

Results By

Marathon - Results

Leaderboard
  • Male Participants
    1. Nathan Adams 2:36:43
    2. Billy Grona 2:42:28
    3. Mathew Napier 2:44:13
    4. Kurt Klewin 2:47:29
    5. Chase Haney 2:48:30
  • Female Participants
    1. Jennifer Graef 3:02:15
    2. Tracy Thelen 3:09:23
    3. Jamie Pusateri 3:10:19
    4. Brandi Shaw 3:13:30
    5. Jennifer West 3:18:19

displaying: 1 - 58 of 58
number of records per page: [10] [25] [50] [all]

    NO FN LN SEX DIVISION BOSTON CITY STATE OVERALL DIVPL SEXPL GUNTIME 10K 15K HALF 27K 32K TIME PACE
755 David Branner M M5559 X Temple TX 103 1/58 93/1233 3:23:22 47:37 1:11:36 1:40:41 2:07:12 2:33:35 3:22:56 7:45
536 Tom Kilcourse M M5559 X Kansas City MO 132 2/58 118/1233 3:28:55 47:50 1:12:23 1:42:30 2:10:14 2:37:54 3:28:03 7:57
1454 Doug Beagle M M5559 X Houston TX 193 3/58 166/1233 3:34:51 52:39 1:18:11 1:49:22 2:17:31 2:45:07 3:34:17 8:11
168 Derle Smith Jr. M M5559 X Choctaw OK 195 4/58 168/1233 3:35:07 48:50 1:14:05 1:45:46 2:15:30 2:44:13 3:34:54 8:13
466 Lawrence Schovanec M M5559 X Lubbock TX 208 5/58 180/1233 3:36:30 51:00 1:16:51 1:48:21 2:17:05 2:45:16 3:36:16 8:16
1416 Edward Jones M M5559 X Stillwater OK 210 6/58 182/1233 3:36:40 56:31 1:22:08 1:52:25 2:19:22 2:46:17 3:34:19 8:11
953 Bobby McMullen M M5559 X Ft. Worth TX 233 7/58 204/1233 3:38:30 51:00 1:16:50 1:48:13 2:17:16 2:45:55 3:37:54 8:19
1061 Jim Flesher M M5559 X Stillwater OK 305 8/58 261/1233 3:44:31 51:55 1:18:28 1:51:25 2:21:02 2:50:13 3:44:26 8:34
1055 Bob Kovell M M5559 X St. Cloud MN 322 9/58 273/1233 3:45:48 50:39 1:16:42 1:48:20 2:17:22 2:46:53 3:45:17 8:36
823 Kendall Black M M5559 - Grand Prairie TX 383 10/58 319/1233 3:49:30 53:30 1:21:16 1:54:05 2:23:16 2:52:12 3:46:39 8:40
604 Larry Grill M M5559 - Claremont CA 387 11/58 323/1233 3:49:36 51:55 1:18:34 1:51:37 2:21:44 2:52:35 3:48:31 8:44
528 Mark Pollock M M5559 - Gurnee IL 415 12/58 347/1233 3:51:46 51:35 1:18:12 1:51:24 2:22:36 2:53:22 3:49:15 8:45
833 James Evans M M5559 - Republic MO 450 13/58 369/1233 3:54:00 53:26 1:20:43 1:54:16 2:25:09 2:55:41 3:52:58 8:54
514 Glenn Munson M M5559 - Memphis TN 465 14/58 380/1233 3:54:54 53:48 1:20:56 1:54:22 2:25:06 2:55:47 3:52:35 8:53
1826 Eunsup Kim M M5559 - Dallas TX 485 15/58 394/1233 3:56:00 1:02:10 1:31:42 2:06:12 2:36:36 3:05:23 3:55:42 9:00
210 David Jolly M M5559 - Hernando FL 554 16/58 447/1233 3:59:28 56:18 1:24:23 1:59:00 2:30:47 3:01:46 3:58:25 9:06
720 Robert Strauss M M5559 - Glencoe IL 555 17/58 448/1233 3:59:30 53:37 1:22:02 1:56:41 2:28:24 3:01:07 3:57:53 9:05
1491 Richard Peck M M5559 - Dallas TX 585 18/58 468/1233 4:00:07 53:35 1:21:30 1:55:18 2:26:45 2:59:18 3:57:57 9:05
535 Ross Coomber M M5559 - Toronto ON 612 19/58 486/1233 4:01:25 59:06 1:29:44 2:04:12 2:35:01 3:05:47 3:59:48 9:10
1129 Kenneth Hambrick M M5559 - Enid OK 707 20/58 546/1233 4:08:17 55:51 1:23:24 1:56:52 2:29:06 2:59:52 4:02:02 9:15
993 John Burkhart M M5559 - Ardmore OK 732 21/58 563/1233 4:10:01 55:48 1:24:21 1:59:13 2:30:52 3:01:56 4:08:53 9:30
132 Joseph Hatlelid M M5559 - O'Fallon IL 805 22/58 605/1233 4:14:39 57:10 1:25:51 2:01:02 2:34:12 3:06:59 4:11:58 9:37
767 David Parker M M5559 - Ponca City OK 815 23/58 611/1233 4:15:46 58:54 1:28:50 2:05:47 2:38:58 3:11:44 4:14:21 9:43
559 Delbert Baker M M5559 - Harvest AL 982 24/58 715/1233 4:25:01 1:01:52 1:33:09 2:12:27 2:46:04 3:20:20 4:22:24 10:01
163 Mark Seikel M M5559 - Harrah OK 1011 25/58 730/1233 4:27:25 58:06 1:28:37 2:05:07 2:40:02 3:15:00 4:20:09 9:56
1462 Jack Christian M M5559 - Hammon OK 1024 26/58 738/1233 4:28:08 57:49 1:26:45 2:02:19 2:34:25 3:09:56 4:19:06 9:54
161 Stephen Rulewicz M M5559 - Edmond OK 1056 27/58 760/1233 4:30:31 59:00 1:28:39 2:06:29 2:41:59 3:19:05 4:29:13 10:17
2742 William Thams M M5559 - Guthrie OK 1076 28/58 775/1233 4:31:50 1:04:31 1:41:13 2:15:17 2:46:54 3:19:41 4:27:28 10:13
2861 Bill Simcox M M5559 - Wichita KS 1079 29/58 777/1233 4:31:57 57:47 1:27:24 2:04:36 2:39:53 3:16:00 4:27:48 10:14
1023 Michael Allen M M5559 - Salina KS 1092 30/58 785/1233 4:32:42 59:40 1:31:15 2:13:37 2:48:11 3:24:19 4:29:03 10:17
806 Bart Williams M M5559 - Oklahoma City OK 1116 31/58 802/1233 4:34:09 1:00:25 1:31:01 2:09:11 2:45:05 3:21:00 4:31:59 10:23
1455 Ron Krey M M5559 - Enid OK 1127 32/58 809/1233 4:35:28 56:42 1:26:21 2:03:44 2:39:56 3:18:54 4:30:48 10:21
903 Tomas Bonilla M M5559 - Amarillo TX 1158 33/58 829/1233 4:38:25 1:02:35 1:33:34 2:10:49 2:46:36 3:22:30 4:35:38 10:32
1802 John Jackson M M5559 - Oklahoma City OK 1203 34/58 860/1233 4:41:17 52:56 1:23:01 2:02:52 2:40:40 3:20:37 4:40:40 10:43
439 Steve Lofquist M M5559 - Overland Park KS 1238 35/58 880/1233 4:43:31 1:02:17 1:34:54 2:12:23 2:47:20 3:26:21 4:42:00 10:46
1745 Raymond Knowles M M5559 - Okc OK 1260 36/58 892/1233 4:44:51 1:14:54 1:49:33 2:28:26 3:04:51 3:38:31 4:34:37 10:29
2644 John Brant M M5559 - Bartlesville OK 1308 37/58 917/1233 4:46:53 1:08:45 1:40:57 2:18:20 2:54:21 3:30:50 4:40:07 10:42
1065 Alan Birdsell M M5559 - Hesston KS 1351 38/58 937/1233 4:50:06 1:05:18 1:38:49 2:20:33 2:59:38 3:37:24 4:48:20 11:01
142 Allen Knehans M M5559 - Norman OK 1365 39/58 947/1233 4:51:21 1:04:37 1:37:37 2:18:44 2:56:41 3:35:10 4:45:14 10:54
    NO FN LN SEX DIVISION BOSTON CITY STATE OVERALL DIVPL SEXPL GUNTIME 10K 15K HALF 27K 32K TIME PACE
1320 Jackie Johnson M M5559 - Ft Sill OK 1408 40/58 972/1233 4:55:06 57:28 1:28:12 2:06:24 2:46:36 3:26:19 4:47:30 10:59
129 Bill Gomboc M M5559 - Lexington OK 1443 41/58 992/1233 4:58:17 1:05:25 1:39:40 2:21:39 3:01:22 3:41:36 4:55:09 11:16
123 Bobby Duke M M5559 - Pearland TX 1463 42/58 1003/1233 5:00:08 1:07:15 1:41:24 2:23:28 3:00:51 3:39:03 4:50:39 11:06
3080 Terry Barnes M M5559 - Keller TX 1514 43/58 1024/1233 5:03:56 1:05:46 1:38:22 2:17:40 2:54:43 3:37:10 5:00:31 11:29
1490 Joe McIntosh M M5559 - Oklahoma City OK 1525 44/58 1028/1233 5:04:46 59:38 1:30:09 2:09:18 2:46:26 3:42:11 5:03:21 11:35
406 Lawrence Cohen M M5559 - Spokane WA 1543 45/58 1038/1233 5:07:37 1:05:41 1:40:07 2:22:30 3:04:17 3:46:10 5:04:11 11:37
408 Thomas Fritz M M5559 - Spokane WA 1666 46/58 1101/1233 5:27:01 1:08:16 1:44:24 2:31:46 3:16:11 4:01:10 5:23:47 12:22
1734 David Adkins M M5559 - Chickasha OK 1676 47/58 1106/1233 5:29:40 1:05:50 1:41:03 2:25:50 3:09:05 3:54:35 5:20:34 12:15
362 Donald Porter M M5559 - Fort Worth TX 1696 48/58 1119/1233 5:33:23 1:16:32 1:54:32 2:41:03 3:24:23 4:06:46 5:24:22 12:23
716 Ben Woolsoncroft M M5559 - Salina KS 1702 49/58 1123/1233 5:33:47 1:08:56 1:43:47 2:27:49 3:11:56 3:57:11 5:26:00 12:27
1221 Long Vu M M5559 - Oklahoma City OK 1744 50/58 1139/1233 5:42:07 - - - 3:33:11 4:18:56 5:42:04 13:04
370 Myron Miller M M5559 - Rome NY 1805 51/58 1168/1233 5:57:17 57:18 2:28:59 3:14:39 3:56:34 4:36:28 5:55:40 13:35
1827 David Calenzani M M5559 - Oklahoma City OK 1821 52/58 1177/1233 6:05:23 1:12:20 1:49:03 2:37:12 3:23:41 4:12:22 5:54:03 13:31
950 Timothy Koehler M M5559 - Wilmington DE 1834 53/58 1182/1233 6:12:31 - 2:06:31 3:04:11 3:55:13 4:43:26 6:12:25 14:13
852 R. Kell Price M M5559 - Broken Arrow OK 1837 54/58 1184/1233 6:15:22 1:08:16 1:45:05 2:32:55 3:26:56 4:20:04 6:07:42 14:03
137 Rick Johnson M M5559 - Duncan OK 1850 55/58 1190/1233 6:18:27 - 2:14:12 3:09:07 3:59:22 4:48:09 6:18:21 14:27
413 Robert Kay M M5559 - Honolulu HI 1904 56/58 1212/1233 6:51:12 - 2:09:23 3:15:28 4:10:52 5:09:27 6:51:04 15:42
1294 Lawrence Bowen M M5559 - Austin TX 1905 57/58 1213/1233 6:51:38 1:19:44 2:09:41 3:08:10 4:04:24 5:02:01 6:48:34 15:36
1187 Brad Smith M M5559 - Oklahoma City OK 1945 58/58 1222/1233 7:33:25 - 2:42:47 3:45:24 4:46:23 5:43:13 7:33:26 17:19

  • share - click this icon in the results above to share via Facebook, Twitter, email, and more
  • print - click this icon in the results above for a printable page
  • radius - click this icon in the results above to show finishers before and after